Time;durP1;ratioP1;P1;durP2;ratioP2;P2;SDS_P1;SDS_P2;PMS_P1;PMS_P2;Temp;Humidity;BMP_temperature;BMP_pressure;BME280_temperature;BME280_humidity;BME280_pressure;Samples;Min_cycle;Max_cycle;Signal;HPM_P1;HPM_P2
2024/01/16 00:00:45;;;;;;;4.47;1.42;;;;;;;5.27;62.61;99700.06;4954641;28;96749;-70
2024/01/16 00:03:11;;;;;;;4.65;1.30;;;;;;;5.24;61.93;99695.81;4951643;28;99458;-71
2024/01/16 00:05:38;;;;;;;5.95;1.45;;;;;;;5.21;61.99;99696.75;4950259;28;101786;-72
2024/01/16 00:08:05;;;;;;;10.95;1.55;;;;;;;5.32;61.66;99703.41;4953019;28;96717;-76
2024/01/16 00:10:31;;;;;;;3.85;1.33;;;;;;;5.25;62.27;99699.28;4950978;28;98459;-71
2024/01/16 00:12:59;;;;;;;5.65;1.40;;;;;;;5.01;64.47;99693.88;4948468;28;99531;-71
2024/01/16 00:15:25;;;;;;;2.97;1.10;;;;;;;5.18;65.02;99694.25;4949872;28;101862;-71
2024/01/16 00:17:52;;;;;;;5.60;1.55;;;;;;;5.13;64.89;99703.13;4955266;28;98160;-71
2024/01/16 00:20:19;;;;;;;3.85;1.58;;;;;;;5.07;65.09;99704.16;4954998;28;98905;-71
2024/01/16 00:22:46;;;;;;;5.85;1.40;;;;;;;5.12;66.33;99709.28;4951860;28;98893;-72
2024/01/16 00:25:12;;;;;;;4.47;1.50;;;;;;;4.88;67.27;99713.44;4949702;28;99265;-71
2024/01/16 00:27:38;;;;;;;6.97;1.33;;;;;;;4.93;67.37;99722.03;4951826;28;97293;-73
2024/01/16 00:30:07;;;;;;;5.88;1.60;;;;;;;4.89;67.83;99720.41;4950530;28;97052;-71
2024/01/16 00:32:34;;;;;;;6.65;1.38;;;;;;;5.05;67.75;99720.84;4961014;28;99166;-72
2024/01/16 00:35:00;;;;;;;8.13;3.05;;;;;;;4.88;67.31;99712.59;4954346;28;102385;-73
2024/01/16 00:37:27;;;;;;;4.95;1.20;;;;;;;5.20;67.05;99720.34;4953875;28;97450;-72
2024/01/16 00:39:53;;;;;;;6.57;1.98;;;;;;;5.37;67.79;99723.34;4951497;28;97644;-72
2024/01/16 00:42:19;;;;;;;7.40;1.90;;;;;;;5.69;67.23;99735.44;4950697;28;97616;-72
2024/01/16 00:44:46;;;;;;;5.13;1.80;;;;;;;5.36;69.49;99739.09;4959216;28;99289;-73
2024/01/16 00:47:14;;;;;;;5.18;2.08;;;;;;;5.63;69.34;99748.75;4958590;28;97056;-71
2024/01/16 00:49:40;;;;;;;5.93;1.60;;;;;;;5.96;68.47;99755.56;4954086;28;96739;-71
2024/01/16 00:52:07;;;;;;;5.00;1.42;;;;;;;5.96;68.04;99763.44;4956716;28;98141;-72
2024/01/16 00:54:33;;;;;;;6.47;1.92;;;;;;;5.91;68.35;99783.69;4954671;28;98925;-72
2024/01/16 00:57:00;;;;;;;6.60;1.92;;;;;;;5.62;70.56;99796.81;4956690;28;96780;-72
2024/01/16 00:59:26;;;;;;;6.90;1.65;;;;;;;5.48;70.36;99788.50;4950768;28;97134;-72
2024/01/16 01:01:53;;;;;;;6.13;1.50;;;;;;;5.16;72.61;99789.47;4954163;28;99134;-72
2024/01/16 01:04:21;;;;;;;7.85;1.90;;;;;;;5.02;73.47;99784.59;4948631;28;101900;-72
2024/01/16 01:06:47;;;;;;;6.30;1.25;;;;;;;4.95;72.91;99793.53;4949701;28;98756;-71
2024/01/16 01:09:13;;;;;;;4.38;1.23;;;;;;;4.55;73.77;99801.59;4950956;28;97370;-72
2024/01/16 01:11:40;;;;;;;8.65;1.70;;;;;;;4.48;74.00;99807.88;4951140;28;98839;-72
2024/01/16 01:14:06;;;;;;;5.60;0.80;;;;;;;4.60;73.67;99806.69;4944881;28;99268;-71
2024/01/16 01:16:33;;;;;;;7.10;1.20;;;;;;;4.58;74.96;99806.75;4951117;28;97518;-71
2024/01/16 01:18:59;;;;;;;4.38;1.20;;;;;;;4.32;74.48;99812.66;4950081;28;96984;-72
2024/01/16 01:21:27;;;;;;;6.10;1.30;;;;;;;4.65;73.92;99821.41;4950658;28;98356;-72
2024/01/16 01:23:54;;;;;;;4.97;1.17;;;;;;;4.87;72.71;99823.44;4949228;28;99208;-71
2024/01/16 01:26:20;;;;;;;3.38;1.67;;;;;;;4.93;71.45;99815.41;4950985;28;98437;-71
2024/01/16 01:28:47;;;;;;;7.72;1.65;;;;;;;4.93;71.60;99818.88;4954016;28;96779;-71
2024/01/16 01:31:13;;;;;;;6.00;2.88;;;;;;;4.79;73.04;99818.44;4953778;28;99181;-73
2024/01/16 01:33:40;;;;;;;3.65;1.20;;;;;;;4.97;71.77;99827.53;4956502;28;98838;-73
2024/01/16 01:36:07;;;;;;;2.90;1.20;;;;;;;5.05;71.05;99825.56;4950446;28;96802;-73
2024/01/16 01:38:34;;;;;;;3.53;1.40;;;;;;;4.84;71.35;99826.16;4952273;28;97310;-73
2024/01/16 01:41:01;;;;;;;5.47;1.50;;;;;;;4.67;71.62;99819.59;4952768;28;98800;-74
2024/01/16 01:43:27;;;;;;;6.75;1.38;;;;;;;5.11;70.30;99810.53;4956241;28;99251;-73
2024/01/16 01:46:09;;;;;;;2.45;1.08;;;;;;;5.18;68.65;99827.81;4955515;28;96754;-74
2024/01/16 01:48:37;;;;;;;3.85;1.00;;;;;;;5.07;68.35;99824.59;4958036;28;96840;-73
2024/01/16 01:51:03;;;;;;;5.75;1.25;;;;;;;5.15;68.02;99830.50;4956653;28;98778;-70
2024/01/16 01:53:32;;;;;;;4.15;1.40;;;;;;;4.98;68.81;99834.50;4953360;28;97577;-71
2024/01/16 01:56:00;;;;;;;1.45;0.90;;;;;;;5.10;67.61;99829.78;4961162;28;97806;-72
2024/01/16 01:58:26;;;;;;;2.45;0.75;;;;;;;5.30;66.94;99830.97;4952463;28;96716;-72
2024/01/16 02:00:53;;;;;;;4.15;1.20;;;;;;;5.27;67.08;99825.81;4957295;28;102603;-72
2024/01/16 02:03:21;;;;;;;5.97;1.05;;;;;;;5.36;66.74;99843.91;4946464;28;98881;-72
2024/01/16 02:05:47;;;;;;;2.60;0.75;;;;;;;5.26;66.33;99845.91;4951363;28;96933;-72
2024/01/16 02:08:14;;;;;;;2.80;1.10;;;;;;;5.44;66.62;99841.91;4951405;28;99049;-73
2024/01/16 02:10:46;;;;;;;4.22;0.98;;;;;;;5.18;66.98;99846.13;4949803;28;98812;-73
2024/01/16 02:13:13;;;;;;;4.80;0.93;;;;;;;5.12;66.26;99848.91;4950594;28;98900;-73
2024/01/16 02:15:41;;;;;;;8.90;1.20;;;;;;;5.03;65.40;99854.41;4955013;28;96823;-73
2024/01/16 02:18:07;;;;;;;3.42;1.08;;;;;;;5.28;66.17;99854.59;4948686;28;98892;-73
2024/01/16 02:20:33;;;;;;;3.05;0.90;;;;;;;5.41;65.11;99860.34;4949810;28;99126;-72
2024/01/16 02:23:04;;;;;;;3.13;0.90;;;;;;;5.17;64.86;99865.38;4948115;28;98974;-72
2024/01/16 02:25:31;;;;;;;2.67;1.25;;;;;;;5.29;64.94;99864.16;4948395;28;97397;-73
2024/01/16 02:27:58;;;;;;;1.52;1.02;;;;;;;5.34;63.98;99877.13;4954537;28;97074;-73
2024/01/16 02:30:24;;;;;;;5.13;1.05;;;;;;;5.56;64.21;99880.88;4954649;28;98855;-73
2024/01/16 02:32:50;;;;;;;5.03;1.20;;;;;;;5.05;64.30;99870.94;4953401;28;98799;-72
2024/01/16 02:35:18;;;;;;;2.72;0.88;;;;;;;4.98;66.08;99873.75;4954251;28;97234;-72
2024/01/16 02:37:45;;;;;;;4.93;1.10;;;;;;;4.79;67.05;99886.47;4957649;28;96875;-71
2024/01/16 02:40:12;;;;;;;2.83;0.82;;;;;;;5.11;65.71;99886.50;4950270;28;98734;-72
2024/01/16 02:42:39;;;;;;;2.03;0.90;;;;;;;4.87;65.88;99889.72;4951769;28;99056;-72
2024/01/16 02:48:27;;;;;;;3.45;0.90;;;;;;;4.57;67.21;99901.84;4946461;28;97065;-72
2024/01/16 02:50:54;;;;;;;1.77;0.80;;;;;;;4.74;66.44;99904.88;4957158;28;101906;-72
2024/01/16 02:53:20;;;;;;;2.25;0.98;;;;;;;4.45;65.59;99916.97;4950317;28;99145;-72
2024/01/16 02:55:46;;;;;;;5.82;1.23;;;;;;;4.10;68.44;99918.66;4952938;28;97688;-72
2024/01/16 02:58:14;;;;;;;3.22;0.98;;;;;;;3.74;69.95;99919.44;4953618;28;97562;-73
2024/01/16 03:00:40;;;;;;;4.22;1.73;;;;;;;3.82;69.69;99918.38;4950834;28;99060;-73
2024/01/16 03:03:08;;;;;;;3.90;0.85;;;;;;;3.47;71.43;99920.88;4950554;28;98239;-73
2024/01/16 03:05:34;;;;;;;2.40;0.93;;;;;;;3.53;71.40;99925.97;4952707;28;96827;-73
2024/01/16 03:08:00;;;;;;;5.28;1.05;;;;;;;3.44;72.05;99928.75;4950515;28;96868;-73
2024/01/16 03:10:27;;;;;;;2.30;0.80;;;;;;;3.59;71.58;99933.69;4949579;28;99472;-72
2024/01/16 03:12:53;;;;;;;3.17;1.00;;;;;;;3.45;72.13;99936.56;4952287;28;99906;-73
2024/01/16 03:15:21;;;;;;;4.28;1.00;;;;;;;3.44;72.48;99939.19;4954794;28;97439;-73
2024/01/16 03:17:48;;;;;;;4.47;0.70;;;;;;;3.31;73.53;99940.31;4949967;28;96971;-73
2024/01/16 03:20:15;;;;;;;3.80;1.27;;;;;;;3.41;73.11;99954.94;4951934;28;99472;-73
2024/01/16 03:22:41;;;;;;;5.13;1.30;;;;;;;3.42;73.32;99970.56;4952310;28;102109;-71
2024/01/16 03:25:09;;;;;;;4.55;1.27;;;;;;;3.43;73.45;99968.81;4951597;28;99994;-73
2024/01/16 03:27:37;;;;;;;2.58;0.90;;;;;;;3.65;72.77;99964.91;4956748;28;96979;-72
2024/01/16 03:30:04;;;;;;;2.50;0.88;;;;;;;3.69;71.98;99963.94;4952816;28;98914;-72
2024/01/16 03:32:31;;;;;;;7.68;1.42;;;;;;;3.54;72.51;99983.38;4963280;28;97739;-72
2024/01/16 03:34:58;;;;;;;2.97;1.30;;;;;;;3.48;72.57;99978.28;4952741;28;97282;-71
2024/01/16 03:37:24;;;;;;;4.55;1.23;;;;;;;3.54;72.22;99982.53;4958652;28;96749;-71
2024/01/16 03:39:50;;;;;;;3.45;1.27;;;;;;;3.74;72.41;99983.00;4951852;28;99003;-72
2024/01/16 03:42:17;;;;;;;6.28;1.50;;;;;;;3.60;71.93;99988.53;4956696;28;97650;-72
2024/01/16 03:44:43;;;;;;;5.82;1.35;;;;;;;3.39;73.16;100004.59;4956192;28;96705;-72
2024/01/16 03:47:10;;;;;;;4.97;1.40;;;;;;;3.48;73.25;100009.63;4954289;28;97738;-71
2024/01/16 03:49:38;;;;;;;5.32;1.05;;;;;;;3.49;73.52;100016.56;4953779;28;98966;-70
2024/01/16 03:52:05;;;;;;;3.00;1.10;;;;;;;3.45;73.42;100025.38;4955980;28;98052;-70
2024/01/16 03:54:31;;;;;;;4.00;1.27;;;;;;;3.35;74.14;100029.00;4953333;28;96832;-72
2024/01/16 03:56:58;;;;;;;5.38;1.58;;;;;;;3.31;74.34;100031.72;4957669;28;97222;-70
2024/01/16 03:59:24;;;;;;;7.60;1.73;;;;;;;3.14;75.50;100030.25;4951544;28;102164;-70
2024/01/16 04:01:50;;;;;;;4.97;1.70;;;;;;;3.29;75.60;100023.91;4951351;28;99291;-70
2024/01/16 04:04:17;;;;;;;6.00;1.48;;;;;;;3.63;74.06;100020.69;4953522;28;98011;-70
2024/01/16 04:06:46;;;;;;;6.00;1.88;;;;;;;3.81;72.20;100017.69;4951614;28;97444;-71
2024/01/16 04:09:14;;;;;;;3.30;1.85;;;;;;;3.84;71.65;100012.44;4950619;28;101601;-71
2024/01/16 04:11:40;;;;;;;5.28;1.58;;;;;;;3.84;71.40;100013.28;4950881;28;99608;-70
2024/01/16 04:14:07;;;;;;;5.97;1.90;;;;;;;3.71;72.54;100022.25;4953552;28;97824;-71
2024/01/16 04:16:33;;;;;;;3.88;1.83;;;;;;;3.73;72.12;100024.84;4952286;28;97551;-74
2024/01/16 04:19:00;;;;;;;9.30;2.05;;;;;;;3.67;72.55;100028.44;4949860;28;98345;-72
2024/01/16 04:21:26;;;;;;;3.45;1.80;;;;;;;2.73;76.83;100037.88;4952474;28;98840;-73
2024/01/16 04:23:54;;;;;;;6.50;2.20;;;;;;;2.83;78.08;100047.28;4952178;28;97191;-71
2024/01/16 04:26:21;;;;;;;4.43;2.15;;;;;;;3.12;77.07;100041.59;4952251;28;96842;-70
2024/01/16 04:28:47;;;;;;;5.38;2.25;;;;;;;3.32;76.09;100049.97;4949348;28;98556;-71
2024/01/16 04:31:16;;;;;;;7.80;2.45;;;;;;;3.20;76.57;100053.66;4951740;28;99577;-71
2024/01/16 04:33:42;;;;;;;4.78;2.05;;;;;;;3.20;76.69;100045.81;4957090;28;96804;-71
2024/01/16 04:36:09;;;;;;;3.80;2.63;;;;;;;3.60;74.99;100043.38;4953650;28;98277;-72
2024/01/16 04:38:36;;;;;;;5.03;2.15;;;;;;;3.55;74.58;100041.72;4948825;28;98520;-71
2024/01/16 04:41:04;;;;;;;8.35;2.20;;;;;;;3.38;74.85;100047.25;4947712;28;98809;-71
2024/01/16 04:43:30;;;;;;;8.35;2.10;;;;;;;3.40;74.55;100048.09;4948591;28;97392;-71
2024/01/16 04:45:57;;;;;;;4.88;2.40;;;;;;;3.50;74.03;100044.41;4950208;28;96817;-71
2024/01/16 04:48:23;;;;;;;7.00;2.33;;;;;;;3.66;72.99;100045.00;4947515;28;98851;-71
2024/01/16 04:50:49;;;;;;;2.65;1.70;;;;;;;3.74;72.69;100039.66;4952858;28;99298;-71
2024/01/16 04:53:17;;;;;;;2.17;1.23;;;;;;;3.49;74.16;100047.03;4947991;28;97751;-71
2024/01/16 04:55:43;;;;;;;7.20;1.77;;;;;;;3.02;75.58;100053.09;4952095;28;98562;-71
2024/01/16 04:58:11;;;;;;;3.58;1.17;;;;;;;3.13;75.35;100064.22;4949268;28;99370;-72
2024/01/16 05:00:37;;;;;;;2.30;1.65;;;;;;;3.17;74.79;100052.81;4951073;28;98780;-71
2024/01/16 05:03:05;;;;;;;7.03;1.42;;;;;;;3.12;75.17;100058.13;4949389;28;98889;-73
2024/01/16 05:05:32;;;;;;;3.45;1.40;;;;;;;3.28;75.37;100056.16;4953140;28;97054;-70
2024/01/16 05:07:58;;;;;;;2.78;1.58;;;;;;;3.31;75.19;100047.38;4950422;28;98791;-71
2024/01/16 05:10:24;;;;;;;4.90;1.70;;;;;;;3.20;75.05;100058.88;4950867;28;101802;-70
2024/01/16 05:12:51;;;;;;;6.57;1.90;;;;;;;3.08;76.08;100066.03;4951294;28;97328;-71
2024/01/16 05:15:18;;;;;;;5.93;2.30;;;;;;;3.10;76.31;100075.56;4950270;28;97577;-70
2024/01/16 05:17:44;;;;;;;4.13;2.35;;;;;;;3.08;76.50;100072.13;4953367;28;99527;-70
2024/01/16 05:20:11;;;;;;;5.22;2.38;;;;;;;2.99;76.66;100066.19;4950006;28;98761;-71
2024/01/16 05:22:38;;;;;;;4.97;2.15;;;;;;;3.14;76.38;100073.78;4946912;28;97811;-70
2024/01/16 05:25:06;;;;;;;4.97;2.30;;;;;;;3.11;76.96;100071.19;4952894;28;96807;-70
2024/01/16 05:27:33;;;;;;;3.25;1.95;;;;;;;3.26;76.55;100068.34;4957389;28;101493;-71
2024/01/16 05:30:00;;;;;;;6.57;2.30;;;;;;;3.31;75.94;100068.25;4951652;28;99426;-72
2024/01/16 05:32:28;;;;;;;5.97;2.00;;;;;;;3.49;75.22;100081.88;4947987;28;96850;-71
2024/01/16 05:34:54;;;;;;;3.78;2.35;;;;;;;3.56;74.54;100080.88;4951517;28;97465;-71
2024/01/16 05:37:20;;;;;;;9.35;2.83;;;;;;;3.72;73.50;100080.63;4952453;28;97739;-71
2024/01/16 05:39:47;;;;;;;5.63;2.95;;;;;;;3.40;73.85;100087.28;4952135;28;98812;-71
2024/01/16 05:42:13;;;;;;;5.80;3.22;;;;;;;3.48;74.51;100090.59;4948662;28;97221;-72
2024/01/16 05:44:40;;;;;;;6.05;3.00;;;;;;;3.64;73.48;100087.72;4951939;28;97254;-70
2024/01/16 05:47:06;;;;;;;6.70;3.50;;;;;;;3.82;73.29;100087.38;4954088;28;98887;-70
2024/01/16 05:49:34;;;;;;;8.07;3.70;;;;;;;4.04;72.21;100091.31;4948251;28;98806;-72
2024/01/16 05:52:00;;;;;;;10.07;4.78;;;;;;;4.18;71.09;100096.28;4952042;28;96839;-71
2024/01/16 05:54:28;;;;;;;11.48;6.13;;;;;;;4.22;70.40;100103.16;4947418;28;97399;-71
2024/01/16 05:56:55;;;;;;;11.23;5.30;;;;;;;4.25;70.70;100103.97;4951664;28;99061;-71
2024/01/16 05:59:21;;;;;;;7.82;3.13;;;;;;;4.25;70.36;100113.59;4948235;28;98127;-71
2024/01/16 06:01:49;;;;;;;5.93;3.03;;;;;;;4.16;70.31;100118.97;4953199;28;96942;-72
2024/01/16 06:04:15;;;;;;;7.35;3.80;;;;;;;4.40;69.82;100114.13;4962537;28;97600;-73
2024/01/16 06:06:45;;;;;;;10.90;4.05;;;;;;;4.64;69.08;100122.38;4947531;28;98747;-74
2024/01/16 06:09:13;;;;;;;7.35;3.53;;;;;;;4.83;68.37;100123.69;4955576;28;98774;-71
2024/01/16 06:11:40;;;;;;;7.15;3.22;;;;;;;4.38;68.14;100123.78;4956044;28;96835;-71
2024/01/16 06:14:07;;;;;;;5.78;2.17;;;;;;;4.26;68.53;100121.41;4953643;28;97069;-72
2024/01/16 06:16:33;;;;;;;9.27;3.38;;;;;;;3.77;71.05;100123.19;4953306;28;97972;-71
2024/01/16 06:19:00;;;;;;;12.30;3.05;;;;;;;3.91;70.59;100129.91;4952444;28;98810;-72
2024/01/16 06:21:27;;;;;;;5.28;2.97;;;;;;;3.50;72.21;100135.84;4951996;28;97709;-71
2024/01/16 06:23:55;;;;;;;7.25;3.20;;;;;;;3.32;73.42;100141.38;4963930;28;97468;-72
2024/01/16 06:26:21;;;;;;;8.90;3.55;;;;;;;3.31;73.62;100139.63;4953350;28;99353;-71
2024/01/16 06:28:47;;;;;;;6.10;3.33;;;;;;;3.38;73.58;100143.88;4953113;28;101443;-71
2024/01/16 06:31:14;;;;;;;7.43;3.55;;;;;;;3.38;73.56;100149.09;4958044;28;97148;-71
2024/01/16 06:33:40;;;;;;;7.57;3.17;;;;;;;3.59;72.61;100148.75;4955774;28;97610;-71
2024/01/16 06:36:08;;;;;;;7.85;2.90;;;;;;;3.58;72.45;100151.41;4950735;28;99396;-70
2024/01/16 06:38:34;;;;;;;8.63;3.53;;;;;;;3.73;72.13;100153.75;4952058;28;99007;-71
2024/01/16 06:41:02;;;;;;;5.03;2.53;;;;;;;3.74;71.54;100155.47;4957459;28;97666;-72
2024/01/16 06:43:28;;;;;;;8.98;2.90;;;;;;;3.25;73.08;100154.53;4949178;28;97388;-72
2024/01/16 06:45:54;;;;;;;9.15;2.97;;;;;;;3.44;73.43;100164.69;4951844;28;101917;-72
2024/01/16 06:48:21;;;;;;;6.95;3.00;;;;;;;3.41;73.77;100159.50;4952702;28;99128;-72
2024/01/16 06:50:47;;;;;;;7.03;2.70;;;;;;;3.91;72.40;100163.03;4950393;28;97302;-71
2024/01/16 06:53:14;;;;;;;12.52;3.60;;;;;;;3.85;71.62;100176.19;4952630;28;98141;-73
2024/01/16 06:55:41;;;;;;;7.20;3.60;;;;;;;3.94;72.19;100178.63;4951171;28;98981;-72
2024/01/16 06:58:10;;;;;;;10.35;5.05;;;;;;;4.00;72.18;100183.78;4951741;28;99248;-72
2024/01/16 07:00:36;;;;;;;7.68;3.47;;;;;;;4.04;71.53;100188.06;4954326;28;97096;-71
2024/01/16 07:03:03;;;;;;;11.40;3.45;;;;;;;4.32;70.33;100191.91;4953383;28;100305;-71
2024/01/16 07:05:30;;;;;;;4.60;2.80;;;;;;;3.90;70.89;100192.66;4951603;28;99644;-71
2024/01/16 07:07:58;;;;;;;13.68;3.85;;;;;;;4.11;71.48;100188.81;4957226;28;98988;-71
2024/01/16 07:10:24;;;;;;;9.45;3.35;;;;;;;4.18;71.14;100199.13;4949801;28;96778;-71
2024/01/16 07:12:51;;;;;;;11.88;3.70;;;;;;;4.11;71.81;100205.38;4949695;28;98099;-71
2024/01/16 07:15:19;;;;;;;5.40;3.13;;;;;;;4.18;71.18;100201.75;4952658;28;100778;-71
2024/01/16 07:17:45;;;;;;;6.28;3.08;;;;;;;4.29;69.93;100209.38;4952267;28;99489;-71
2024/01/16 07:20:12;;;;;;;10.85;2.90;;;;;;;3.77;71.90;100209.44;4949510;28;98960;-70
2024/01/16 07:22:39;;;;;;;6.85;2.97;;;;;;;3.34;73.23;100217.94;4945776;28;97336;-71
2024/01/16 07:25:06;;;;;;;10.82;2.92;;;;;;;3.26;75.19;100229.38;4946442;28;98888;-70
2024/01/16 07:27:32;;;;;;;8.77;3.03;;;;;;;3.06;75.59;100229.66;4954085;28;100607;-70
2024/01/16 07:29:58;;;;;;;7.90;3.25;;;;;;;3.25;75.67;100227.66;4952353;28;96821;-71
2024/01/16 07:32:26;;;;;;;6.47;3.58;;;;;;;3.35;75.15;100230.09;4951051;28;101658;-71
2024/01/16 07:34:53;;;;;;;12.00;3.97;;;;;;;3.22;75.26;100228.53;4953425;28;99286;-71
2024/01/16 07:37:20;;;;;;;11.35;3.92;;;;;;;2.67;77.01;100236.22;4953113;28;98926;-71
2024/01/16 07:39:46;;;;;;;7.28;4.13;;;;;;;3.11;75.97;100225.22;4950091;28;97113;-69
2024/01/16 07:42:13;;;;;;;7.22;3.47;;;;;;;3.31;75.41;100225.81;4949895;28;97501;-70
2024/01/16 07:44:40;;;;;;;12.85;5.80;;;;;;;3.46;74.80;100223.00;4948666;28;98272;-71
2024/01/16 07:47:07;;;;;;;5.97;3.55;;;;;;;3.53;74.94;100222.00;4936002;28;98932;-70
2024/01/16 07:49:35;;;;;;;9.25;4.10;;;;;;;3.75;74.20;100219.03;4934772;28;97527;-70
2024/01/16 07:52:01;;;;;;;8.90;3.80;;;;;;;3.98;73.42;100230.00;4941976;28;99734;-70
2024/01/16 07:54:28;;;;;;;9.75;4.22;;;;;;;4.14;72.52;100235.81;4948134;28;99172;-71
2024/01/16 07:56:54;;;;;;;7.13;3.60;;;;;;;3.96;72.11;100247.44;4952110;28;97769;-70
2024/01/16 07:59:20;;;;;;;7.38;3.65;;;;;;;3.79;72.50;100246.88;4953027;28;98674;-70
2024/01/16 08:01:47;;;;;;;6.25;3.35;;;;;;;3.31;74.00;100245.84;4952540;28;97530;-70
2024/01/16 08:04:13;;;;;;;8.90;3.40;;;;;;;3.43;74.24;100256.09;4951760;28;98903;-70
2024/01/16 08:06:41;;;;;;;7.93;2.95;;;;;;;3.42;74.24;100260.47;4948781;28;98774;-70
2024/01/16 08:09:07;;;;;;;8.05;2.80;;;;;;;3.28;75.07;100262.44;4952384;28;96889;-71
2024/01/16 08:11:36;;;;;;;3.92;2.65;;;;;;;3.53;74.08;100257.72;4950913;28;97107;-70
2024/01/16 08:14:03;;;;;;;9.00;2.42;;;;;;;3.74;72.95;100264.38;4950725;28;98786;-70
2024/01/16 08:16:29;;;;;;;7.28;2.88;;;;;;;3.82;72.97;100260.72;4949803;28;102246;-70
2024/01/16 08:18:55;;;;;;;7.13;2.78;;;;;;;3.20;74.36;100270.38;4951011;28;97207;-70
2024/01/16 08:21:22;;;;;;;7.03;2.72;;;;;;;3.32;75.00;100264.09;4949410;28;96870;-70
2024/01/16 08:23:49;;;;;;;5.47;2.83;;;;;;;3.35;75.30;100277.09;4952584;28;99667;-70
2024/01/16 08:26:16;;;;;;;6.03;2.67;;;;;;;3.42;75.34;100275.28;4951397;28;98914;-70
2024/01/16 08:28:42;;;;;;;7.82;2.92;;;;;;;3.56;75.19;100273.34;4952467;28;97910;-70
2024/01/16 08:31:09;;;;;;;7.70;3.78;;;;;;;3.54;74.87;100267.28;4959037;28;96823;-71
2024/01/16 08:33:35;;;;;;;7.78;3.58;;;;;;;3.75;74.21;100266.94;4943753;28;101026;-71
2024/01/16 08:36:01;;;;;;;8.68;3.33;;;;;;;3.86;73.33;100267.66;4939356;28;98804;-71
2024/01/16 08:38:28;;;;;;;8.82;3.25;;;;;;;3.95;72.72;100267.50;4943305;28;97607;-71
2024/01/16 08:40:56;;;;;;;9.52;3.40;;;;;;;3.87;73.64;100269.34;4944637;28;96929;-71
2024/01/16 08:43:22;;;;;;;6.40;2.17;;;;;;;3.75;72.93;100276.53;4945401;28;100509;-71
2024/01/16 08:45:48;;;;;;;7.35;3.25;;;;;;;3.76;74.15;100278.25;4944526;28;99215;-71
2024/01/16 08:48:16;;;;;;;8.38;3.58;;;;;;;3.51;74.87;100277.75;4943910;28;98969;-71
2024/01/16 08:50:43;;;;;;;8.45;3.47;;;;;;;3.51;74.61;100275.16;4950419;28;97478;-71
2024/01/16 08:53:09;;;;;;;5.82;3.20;;;;;;;3.72;74.63;100277.47;4949075;28;100959;-71
2024/01/16 08:55:35;;;;;;;7.65;3.40;;;;;;;3.96;73.90;100286.66;4950031;28;99100;-71
2024/01/16 08:58:03;;;;;;;6.28;3.38;;;;;;;3.77;73.97;100273.03;4949336;28;97148;-71
2024/01/16 09:00:29;;;;;;;9.40;3.22;;;;;;;4.08;73.57;100273.38;4944172;28;96912;-70
2024/01/16 09:02:57;;;;;;;5.93;3.83;;;;;;;4.11;72.08;100281.19;4941553;28;99007;-70
2024/01/16 09:05:25;;;;;;;7.60;3.53;;;;;;;3.92;73.34;100271.91;4945213;28;99092;-71
2024/01/16 09:07:52;;;;;;;6.10;3.78;;;;;;;4.03;73.50;100280.44;4947354;28;98933;-71
2024/01/16 09:10:18;;;;;;;6.88;3.83;;;;;;;4.12;72.82;100280.31;4947791;28;97879;-72
2024/01/16 09:12:45;;;;;;;9.70;4.45;;;;;;;4.32;72.34;100280.84;4949674;28;98975;-72
2024/01/16 09:15:13;;;;;;;9.20;3.90;;;;;;;4.26;71.76;100294.03;4942033;28;98823;-70
2024/01/16 09:17:39;;;;;;;8.18;3.80;;;;;;;4.24;72.17;100294.91;4931879;28;97807;-70
2024/01/16 09:20:07;;;;;;;8.27;4.63;;;;;;;4.24;73.27;100301.03;4936134;28;97381;-70
2024/01/16 09:22:34;;;;;;;8.02;3.97;;;;;;;4.38;73.10;100295.56;4923442;28;99832;-70
2024/01/16 09:25:01;;;;;;;8.68;4.40;;;;;;;4.50;72.63;100294.47;4932049;28;102077;-70
2024/01/16 09:27:27;;;;;;;8.80;5.07;;;;;;;4.33;72.95;100300.00;4933502;28;97679;-71
2024/01/16 09:29:53;;;;;;;11.95;4.25;;;;;;;4.55;72.08;100303.09;4931946;28;97667;-71
2024/01/16 09:32:21;;;;;;;8.60;3.03;;;;;;;4.14;72.94;100299.44;4944811;28;98363;-71
2024/01/16 09:34:47;;;;;;;9.25;4.35;;;;;;;3.72;75.69;100298.38;4952706;28;102214;-70
2024/01/16 09:37:14;;;;;;;11.07;4.38;;;;;;;4.12;74.81;100306.47;4949524;28;99986;-70
2024/01/16 09:39:41;;;;;;;10.63;3.88;;;;;;;3.94;74.31;100307.59;4949319;28;98549;-71
2024/01/16 09:42:07;;;;;;;7.80;4.28;;;;;;;4.10;75.54;100307.34;4953483;28;98916;-71
2024/01/16 09:44:35;;;;;;;9.65;4.05;;;;;;;4.20;74.26;100304.56;4949997;28;99454;-71
2024/01/16 09:47:04;;;;;;;7.90;3.58;;;;;;;3.62;76.99;100304.59;4955253;28;96833;-71
2024/01/16 09:49:31;;;;;;;10.30;4.85;;;;;;;3.89;77.40;100309.41;4954992;28;96974;-71
2024/01/16 09:51:59;;;;;;;6.05;3.65;;;;;;;4.18;75.97;100305.50;4953332;28;98241;-71
2024/01/16 09:54:26;;;;;;;9.73;3.88;;;;;;;4.45;75.17;100304.16;4949205;28;98736;-71
2024/01/16 09:56:54;;;;;;;9.77;3.72;;;;;;;3.92;77.83;100298.06;4953596;28;97567;-71
2024/01/16 09:59:21;;;;;;;7.50;3.75;;;;;;;4.37;75.79;100299.06;4953595;28;97155;-71
2024/01/16 10:01:49;;;;;;;7.28;3.70;;;;;;;4.77;73.46;100307.06;4942960;28;99032;-71
2024/01/16 10:04:16;;;;;;;7.65;3.63;;;;;;;4.55;74.00;100303.09;4947385;28;98949;-71
2024/01/16 10:06:46;;;;;;;7.60;3.47;;;;;;;4.47;75.24;100302.34;4947531;28;97473;-71
2024/01/16 10:09:13;;;;;;;7.53;3.72;;;;;;;5.00;73.07;100298.75;4954270;28;96883;-71
2024/01/16 10:11:40;;;;;;;6.28;2.85;;;;;;;4.58;73.06;100301.31;4947482;28;98875;-71
2024/01/16 10:14:06;;;;;;;5.07;3.20;;;;;;;3.95;76.28;100306.72;4952893;28;98789;-71
2024/01/16 10:17:05;;;;;;;7.05;3.10;;;;;;;4.28;75.37;100312.28;4949828;28;98583;-71
2024/01/16 10:19:32;;;;;;;5.72;3.33;;;;;;;4.52;74.49;100308.41;4940951;28;99057;-71
2024/01/16 10:22:04;;;;;;;8.25;3.03;;;;;;;4.71;73.25;100308.03;4947815;28;99328;-72
2024/01/16 10:24:32;;;;;;;5.15;2.90;;;;;;;4.52;74.87;100304.03;4955396;28;99231;-71
2024/01/16 10:27:01;;;;;;;6.32;3.22;;;;;;;3.95;77.24;100304.09;4954377;28;100978;-71
2024/01/16 10:29:27;;;;;;;7.22;2.92;;;;;;;4.34;75.59;100307.81;4948777;28;98885;-71
2024/01/16 10:31:54;;;;;;;7.93;3.00;;;;;;;4.71;74.68;100308.03;4950698;28;99051;-71
2024/01/16 10:34:21;;;;;;;4.82;2.45;;;;;;;4.98;71.72;100298.78;4948130;28;101757;-71
2024/01/16 10:36:49;;;;;;;3.10;1.63;;;;;;;4.74;71.75;100307.09;4949641;28;96874;-71
2024/01/16 10:39:17;;;;;;;6.05;2.50;;;;;;;4.61;72.57;100310.81;4952255;28;96737;-71
2024/01/16 10:41:55;;;;;;;9.15;2.17;;;;;;;4.65;72.87;100313.38;4950527;28;99479;-73
2024/01/16 10:44:21;;;;;;;7.40;2.58;;;;;;;4.88;72.77;100314.69;4951216;28;98801;-71
2024/01/16 10:46:47;;;;;;;4.63;2.63;;;;;;;4.70;73.00;100313.28;4952671;28;96798;-71
2024/01/16 10:49:14;;;;;;;8.50;2.33;;;;;;;4.47;73.35;100315.44;4949791;28;97172;-72
2024/01/16 10:51:44;;;;;;;4.32;2.63;;;;;;;4.97;73.66;100320.63;4942278;28;98631;-71
2024/01/16 10:54:14;;;;;;;5.43;2.30;;;;;;;5.36;70.71;100318.09;4947639;28;99198;-71
2024/01/16 10:56:45;;;;;;;8.32;2.20;;;;;;;5.50;69.12;100310.81;4944961;28;99664;-71
2024/01/16 10:59:19;;;;;;;48.47;6.70;;;;;;;5.60;68.86;100314.94;4945168;28;98976;-70
2024/01/16 11:01:50;;;;;;;6.55;1.92;;;;;;;5.38;68.17;100316.31;4945493;28;99461;-73
2024/01/16 11:04:17;;;;;;;6.22;2.67;;;;;;;5.43;68.71;100310.06;4947271;28;98845;-70
2024/01/16 11:06:44;;;;;;;14.30;1.98;;;;;;;5.29;68.08;100303.41;4950797;28;97769;-71
2024/01/16 11:09:15;;;;;;;4.10;1.88;;;;;;;5.34;68.78;100302.41;4951969;28;97223;-71
2024/01/16 11:11:44;;;;;;;6.85;2.33;;;;;;;5.50;68.93;100302.94;4947255;28;99344;-71
2024/01/16 11:14:12;;;;;;;4.20;1.67;;;;;;;4.58;70.02;100290.84;4948769;28;98861;-71
2024/01/16 11:16:40;;;;;;;2.80;1.70;;;;;;;4.85;69.86;100294.69;4950416;28;97528;-71
2024/01/16 11:19:09;;;;;;;6.70;1.92;;;;;;;4.37;70.96;100304.28;4945992;28;97739;-72
2024/01/16 11:21:37;;;;;;;9.98;1.83;;;;;;;4.35;72.06;100299.06;4945869;28;99196;-72
2024/01/16 11:24:04;;;;;;;3.80;1.60;;;;;;;4.13;73.32;100296.88;4942246;28;99246;-72
2024/01/16 11:26:33;;;;;;;9.63;2.33;;;;;;;4.47;73.06;100289.28;4950775;28;98170;-72
2024/01/16 11:29:02;;;;;;;10.98;3.30;;;;;;;4.53;73.05;100297.88;4944222;28;98812;-72
2024/01/16 11:31:31;;;;;;;9.82;2.20;;;;;;;4.70;73.31;100290.59;4949781;28;100278;-72
2024/01/16 11:33:59;;;;;;;9.73;2.03;;;;;;;4.92;71.80;100291.06;4950857;28;99710;-70
2024/01/16 11:36:59;;;;;;;8.60;1.92;;;;;;;4.62;71.76;100281.16;4953715;28;97882;-71